• Join FlightAware (Why Join?)
  • Login
  • US Flag 
02:02PM EDT


 

Airport Tracker/Info


-or-


 

Live Flight TrackerFlight Track Log ✈ BER8375 ✈ 24-Apr-2013 ✈ LOWW / VIE - EDDN / NUE

Flight Track Log - Related Links

Times and Time Zones

All times are in EDT time to prevent confusion due to time zone crossing. See the BER8375 flight status page for this flight to view local times or setup timezone preferences in your user account.

Time Position Orientation Groundspeed Altitude Reporting Facility
EDT Latitude Longitude Course Direction KTS MPH feet Rate Location/Type
09:56AM 48.7324 14.2721 293° West  Level Estimated
09:57AM 48.7675 14.1352 291° West  Level Estimated
09:58AM 48.8025 13.9981 291° West  Level Estimated
09:59AM 48.8373 13.8609 291° West  Level Estimated
10:00AM 48.8720 13.7234 291° West  Level Estimated
10:01AM 48.9065 13.5857 291° West  Level Estimated
10:02AM 48.9409 13.4479 291° West  Level Estimated
10:03AM 48.9750 13.3098 291° West  Level Estimated
10:04AM 49.0090 13.1716 291° West  Level Estimated
10:05AM 49.0429 13.0332 291° West  Level Estimated
10:06AM 49.0766 12.8946 290° West  Level Estimated
10:07AM 49.1101 12.7558 290° West  Level Estimated
10:08AM 49.1434 12.6168 290° West  Level Estimated
10:09AM 49.1766 12.4777 290° West  Level Estimated
10:10AM 49.2096 12.3383 290° West  Level Estimated
10:11AM 49.2425 12.1988 290° West  Level Estimated
10:12AM 49.2752 12.0590 290° West  Level Estimated
10:13AM 49.3077 11.9191 290° West  Level Estimated
10:14AM 49.3400 11.7790 290° West  Level Estimated
10:15AM 49.3722 11.6388 289° West  Level Estimated
10:16AM 49.4042 11.4983 289° West  Level Estimated
10:17AM 49.4360 11.3577 289° West  Level Estimated
10:18AM 49.4677 11.2169 289° West  Level Estimated
10:19AM 49.4986 11.0781 289° West  Level Estimated
10:20AM 49.4986 11.0781 327° Northwest  Level Estimated
10:21AM 49.4986 11.0781 327° Northwest  Level Estimated
10:22AM 49.4986 11.0781 327° Northwest  Level Estimated
10:23AM 49.4986 11.0781 327° Northwest  Level Estimated
10:24AM 49.4986 11.0781 327° Northwest  Level Estimated
10:25AM 49.4986 11.0781 327° Northwest  Level Estimated
10:26AM 49.4986 11.0781 327° Northwest  Level Estimated
10:27AM 49.4986 11.0781 327° Northwest  Level Estimated
10:28AM 49.4986 11.0781 327° Northwest  Level Estimated
10:29AM 49.4986 11.0781 327° Northwest  Level Estimated
10:30AM 49.4986 11.0781 327° Northwest  Level Estimated
10:31AM 49.4986 11.0781 327° Northwest  Level Estimated
10:32AM 49.4986 11.0781 327° Northwest  Level Estimated
10:33AM 49.4986 11.0781 327° Northwest  Level Estimated
10:34AM 49.4986 11.0781 327° Northwest  Level Estimated
10:35AM 49.4986 11.0781 327° Northwest  Level Estimated